Time;durP1;ratioP1;P1;durP2;ratioP2;P2;SDS_P1;SDS_P2;PMS_P1;PMS_P2;Temp;Humidity;BMP_temperature;BMP_pressure;BME280_temperature;BME280_humidity;BME280_pressure;Samples;Min_cycle;Max_cycle;Signal;HPM_P1;HPM_P2
2021/01/17 00:00:23;;;;;;;52.90;49.47;;;;;;;7.59;32.67;100195.22;4455777;32;35386;-86
2021/01/17 00:02:52;;;;;;;52.83;49.33;;;;;;;7.41;32.85;100193.69;4455873;32;33855;-86
2021/01/17 00:05:22;;;;;;;53.07;49.70;;;;;;;7.16;33.67;100191.34;4455711;32;34565;-86
2021/01/17 00:07:50;;;;;;;52.17;48.97;;;;;;;7.18;33.47;100187.00;4455708;32;34827;-86
2021/01/17 00:10:20;;;;;;;53.03;49.67;;;;;;;7.23;33.61;100184.34;4455718;32;35089;-86
2021/01/17 00:12:49;;;;;;;53.23;49.87;;;;;;;7.10;33.96;100175.00;4455570;32;35206;-86
2021/01/17 00:15:17;;;;;;;52.93;49.50;;;;;;;7.11;34.08;100171.53;4443147;32;34172;-86
2021/01/17 00:17:46;;;;;;;51.97;48.77;;;;;;;7.49;33.41;100172.87;4430539;32;33274;-86
2021/01/17 00:20:17;;;;;;;51.17;48.07;;;;;;;7.41;33.58;100165.16;4455819;32;33766;-86
2021/01/17 00:22:46;;;;;;;52.53;49.33;;;;;;;7.04;34.30;100164.69;4456298;32;34939;-86
2021/01/17 00:25:18;;;;;;;52.03;48.83;;;;;;;7.75;33.25;100169.97;4468658;32;33672;-86
2021/01/17 00:27:51;;;;;;;52.47;48.97;;;;;;;7.36;34.01;100166.94;4430492;32;33859;-86
2021/01/17 00:30:22;;;;;;;;;;;;;;;6.65;35.44;100167.62;4456098;32;33657;-86
2021/01/17 00:32:53;;;;;;;51.97;48.80;;;;;;;6.75;35.65;100166.66;4468905;32;34044;-86
2021/01/17 00:35:23;;;;;;;51.83;48.53;;;;;;;7.21;34.74;100157.62;4442943;32;34188;-86
2021/01/17 00:37:56;;;;;;;52.13;48.80;;;;;;;7.38;34.23;100161.75;4429920;32;33986;-86
2021/01/17 00:40:24;;;;;;;52.43;49.10;;;;;;;6.24;36.79;100154.09;4455407;32;34685;-86
2021/01/17 00:42:54;;;;;;;52.97;49.47;;;;;;;6.38;36.72;100155.75;4455769;32;35259;-86
2021/01/17 00:45:27;;;;;;;54.27;50.57;;;;;;;6.67;35.91;100156.41;4455744;32;33612;-86
2021/01/17 00:47:55;;;;;;;52.13;48.63;;;;;;;6.70;35.91;100155.50;4468093;32;33475;-86
2021/01/17 00:50:25;;;;;;;52.40;49.03;;;;;;;6.84;35.64;100152.78;4455433;32;35422;-86
2021/01/17 00:52:55;;;;;;;52.90;49.40;;;;;;;6.29;37.02;100149.75;4442629;32;34380;-86
2021/01/17 00:55:24;;;;;;;53.00;49.60;;;;;;;6.66;36.20;100143.44;4468064;32;34524;-86
2021/01/17 00:57:52;;;;;;;52.20;49.00;;;;;;;6.29;37.08;100144.59;4455623;32;34192;-86
2021/01/17 01:00:23;;;;;;;52.97;49.57;;;;;;;6.30;36.78;100135.09;4455536;32;33598;-86
2021/01/17 01:02:53;;;;;;;52.67;49.37;;;;;;;6.43;36.59;100130.69;4455239;32;35310;-87
2021/01/17 01:05:24;;;;;;;52.77;49.37;;;;;;;6.61;36.43;100140.06;4468208;32;33437;-87
2021/01/17 01:07:53;;;;;;;52.93;49.50;;;;;;;6.74;36.08;100128.72;4455289;32;34224;-87
2021/01/17 01:10:20;;;;;;;53.23;49.73;;;;;;;6.66;36.11;100131.38;4455029;32;33902;-87
2021/01/17 01:12:52;;;;;;;52.70;49.37;;;;;;;6.54;36.81;100126.28;4455116;32;35818;-87
2021/01/17 01:15:21;;;;;;;52.97;49.47;;;;;;;6.40;36.94;100120.38;4468029;32;34262;-86
2021/01/17 01:17:49;;;;;;;53.90;50.40;;;;;;;6.74;36.23;100120.06;4442514;32;35069;-86
2021/01/17 01:20:16;;;;;;;52.13;48.80;;;;;;;6.28;37.02;100110.97;4442168;32;34113;-86
2021/01/17 01:22:45;;;;;;;52.57;49.17;;;;;;;6.64;36.38;100114.13;4468106;32;34961;-86
2021/01/17 01:25:13;;;;;;;52.33;49.03;;;;;;;6.07;37.29;100112.81;4442330;32;34591;-87
2021/01/17 01:27:40;;;;;;;52.87;49.47;;;;;;;6.54;36.51;100110.72;4468071;32;33566;-86
2021/01/17 01:30:08;;;;;;;53.43;50.03;;;;;;;6.61;36.30;100111.56;4467888;32;33741;-86
2021/01/17 01:32:35;;;;;;;54.07;50.57;;;;;;;6.16;37.32;100102.41;4455518;32;34025;-86
2021/01/17 01:35:03;;;;;;;53.97;50.37;;;;;;;6.21;37.23;100097.22;4455531;32;34950;-86
2021/01/17 01:37:35;;;;;;;53.30;49.60;;;;;;;6.21;37.07;100094.63;4455284;32;33746;-86
2021/01/17 01:40:04;;;;;;;53.30;49.90;;;;;;;6.16;37.36;100097.22;4455347;32;34580;-86
2021/01/17 01:42:32;;;;;;;53.50;49.88;;;;;;;6.68;36.36;100098.53;4455502;32;34557;-87
2021/01/17 01:45:00;;;;;;;52.53;49.03;;;;;;;6.73;36.10;100097.63;4467882;32;33643;-86
2021/01/17 01:47:28;;;;;;;53.13;49.53;;;;;;;6.33;37.10;100091.94;4442530;32;34021;-86
2021/01/17 01:49:58;;;;;;;53.10;49.70;;;;;;;6.72;36.30;100093.34;4455233;32;32968;-86
2021/01/17 01:52:27;;;;;;;53.10;49.70;;;;;;;6.53;36.12;100093.50;4455289;32;34614;-87
2021/01/17 01:54:55;;;;;;;53.13;49.63;;;;;;;5.41;38.74;100095.03;4442656;32;32773;-87
2021/01/17 01:57:23;;;;;;;52.93;49.50;;;;;;;5.84;37.72;100087.91;4441988;32;33721;-87
2021/01/17 01:59:51;;;;;;;52.90;49.50;;;;;;;5.79;37.80;100086.25;4441985;32;34867;-86
2021/01/17 02:02:19;;;;;;;53.67;50.00;;;;;;;6.47;36.02;100086.62;4442131;32;35006;-86
2021/01/17 02:04:48;;;;;;;52.83;49.43;;;;;;;5.77;37.20;100087.97;4453917;32;33759;-86
2021/01/17 02:07:35;;;;;;;53.90;50.37;;;;;;;6.83;35.63;100081.13;4454921;32;33947;-86
2021/01/17 02:10:04;;;;;;;53.80;50.20;;;;;;;6.43;36.33;100089.28;4429768;32;34625;-87
2021/01/17 02:12:50;;;;;;;53.33;49.83;;;;;;;6.17;36.90;100090.34;4442370;32;35251;-87
2021/01/17 02:15:24;;;;;;;54.67;50.87;;;;;;;6.24;36.79;100092.00;4455042;32;33820;-87
2021/01/17 02:17:53;;;;;;;52.53;48.93;;;;;;;6.13;36.67;100084.31;4442002;32;32556;-86
2021/01/17 02:20:22;;;;;;;53.30;49.87;;;;;;;6.58;35.88;100083.09;4454769;32;35426;-87
2021/01/17 02:22:59;;;;;;;54.60;51.00;;;;;;;6.10;37.01;100086.06;4441977;32;35222;-86
2021/01/17 02:25:29;;;;;;;54.23;50.43;;;;;;;5.84;37.14;100084.50;4467874;32;33719;-87
2021/01/17 02:27:57;;;;;;;53.10;49.70;;;;;;;5.91;37.10;100078.41;4455113;32;32328;-86
2021/01/17 02:30:26;;;;;;;53.83;50.23;;;;;;;5.40;37.94;100078.69;4468373;32;34594;-87
2021/01/17 02:32:58;;;;;;;53.00;49.47;;;;;;;6.03;37.00;100074.91;4455336;32;35147;-86
2021/01/17 02:35:28;;;;;;;53.33;49.83;;;;;;;6.03;37.15;100063.72;4442374;32;34480;-87
2021/01/17 02:38:05;;;;;;;53.43;49.87;;;;;;;4.86;39.35;100071.09;4454866;32;34118;-87
2021/01/17 02:40:41;;;;;;;53.30;49.63;;;;;;;5.61;37.68;100063.91;4454620;32;34238;-86
2021/01/17 02:43:10;;;;;;;52.40;49.20;;;;;;;4.44;40.37;100066.00;4455047;32;34494;-86
2021/01/17 02:45:38;;;;;;;53.80;50.20;;;;;;;5.20;38.93;100065.84;4454869;32;34359;-86
2021/01/17 02:48:06;;;;;;;54.10;50.50;;;;;;;5.06;39.33;100062.44;4467593;32;34406;-86
2021/01/17 02:50:33;;;;;;;54.10;50.20;;;;;;;5.67;37.70;100057.00;4454723;32;34393;-86
2021/01/17 02:53:10;;;;;;;54.07;50.37;;;;;;;5.32;38.81;100060.63;4441962;32;34144;-87
2021/01/17 02:55:40;;;;;;;53.40;50.00;;;;;;;5.52;38.31;100057.09;4441362;32;34385;-86
2021/01/17 02:58:10;;;;;;;54.20;50.43;;;;;;;6.07;37.18;100044.72;4454751;32;33685;-86
2021/01/17 03:00:40;;;;;;;53.77;50.07;;;;;;;6.04;37.34;100045.59;4454063;32;34753;-87
2021/01/17 03:03:08;;;;;;;53.67;49.97;;;;;;;6.25;36.89;100041.97;4454667;32;32966;-87
2021/01/17 03:05:37;;;;;;;53.43;50.00;;;;;;;6.34;36.34;100033.25;4441605;32;35506;-86
2021/01/17 03:08:06;;;;;;;53.63;50.13;;;;;;;6.03;36.86;100038.69;4454809;32;33744;-86
2021/01/17 03:10:34;;;;;;;53.57;49.97;;;;;;;5.37;38.72;100042.50;4454537;32;33714;-87
2021/01/17 03:13:01;;;;;;;53.33;49.73;;;;;;;5.39;38.75;100037.34;4454241;32;33435;-87
2021/01/17 03:15:31;;;;;;;54.57;50.90;;;;;;;5.54;37.92;100034.66;4466691;32;34510;-87
2021/01/17 03:18:01;;;;;;;53.83;50.40;;;;;;;5.29;38.89;100034.81;4454596;32;33361;-87
2021/01/17 03:20:28;;;;;;;52.37;48.97;;;;;;;4.62;40.16;100028.97;4441179;32;34289;-86
2021/01/17 03:22:56;;;;;;;54.20;50.40;;;;;;;4.76;40.30;100028.09;4428788;32;34204;-86
2021/01/17 03:25:26;;;;;;;54.63;50.93;;;;;;;5.43;38.83;100023.53;4450632;32;160992;-86
2021/01/17 03:27:54;;;;;;;53.80;50.00;;;;;;;5.35;38.75;100023.56;4454116;32;34758;-87
2021/01/17 03:30:22;;;;;;;54.67;51.07;;;;;;;5.62;38.17;100021.69;4441140;32;34410;-87
2021/01/17 03:32:50;;;;;;;52.87;49.27;;;;;;;6.17;37.19;100017.91;4454094;32;35778;-87
2021/01/17 03:35:18;;;;;;;53.87;50.20;;;;;;;5.18;39.38;100021.06;4466951;32;33378;-87
2021/01/17 03:37:46;;;;;;;54.30;50.70;;;;;;;5.27;38.96;100005.53;4454156;32;35165;-86
2021/01/17 03:40:13;;;;;;;54.23;50.57;;;;;;;3.80;42.11;100011.00;4453804;32;35351;-86
2021/01/17 03:42:41;;;;;;;54.63;50.83;;;;;;;3.70;42.62;100005.78;4453902;32;33861;-86
2021/01/17 03:45:09;;;;;;;54.23;50.60;;;;;;;4.75;40.44;100003.16;4453777;32;32766;-86
2021/01/17 03:47:37;;;;;;;54.63;50.83;;;;;;;4.06;41.84;99993.81;4440981;32;32045;-86
2021/01/17 03:50:05;;;;;;;55.47;51.63;;;;;;;4.90;40.06;99986.75;4466644;32;34639;-87
2021/01/17 03:52:33;;;;;;;54.50;50.80;;;;;;;5.00;39.42;99991.88;4454025;32;33184;-87
2021/01/17 03:55:00;;;;;;;55.70;51.80;;;;;;;5.07;39.51;99981.53;4454028;32;33909;-87
2021/01/17 03:57:29;;;;;;;54.50;50.90;;;;;;;5.39;38.65;99986.50;4454102;32;34263;-86
2021/01/17 03:59:57;;;;;;;53.40;49.90;;;;;;;5.48;38.67;99980.44;4453839;32;33721;-87
2021/01/17 04:02:24;;;;;;;52.57;49.03;;;;;;;6.38;36.62;99984.94;4453782;32;33790;-87
2021/01/17 04:04:52;;;;;;;54.03;50.43;;;;;;;6.05;37.28;99981.78;4453963;32;34216;-86
2021/01/17 04:07:20;;;;;;;53.53;50.03;;;;;;;6.08;37.09;99980.03;4440985;32;33794;-86
2021/01/17 04:09:47;;;;;;;52.83;49.33;;;;;;;6.25;36.78;99977.28;4453397;32;34070;-86
2021/01/17 04:12:15;;;;;;;54.27;50.67;;;;;;;5.85;37.44;99985.37;4453524;32;33034;-86
2021/01/17 04:14:43;;;;;;;54.07;50.37;;;;;;;6.47;36.32;99971.88;4453305;32;35144;-87
2021/01/17 04:17:11;;;;;;;54.27;50.57;;;;;;;6.44;36.37;99977.09;4440732;32;33037;-86
2021/01/17 04:19:39;;;;;;;53.60;50.10;;;;;;;6.28;36.78;99982.44;4440179;32;34332;-87
2021/01/17 04:22:07;;;;;;;52.77;49.27;;;;;;;6.24;36.97;99985.91;4440811;32;34882;-86
2021/01/17 04:24:34;;;;;;;54.57;50.87;;;;;;;6.21;36.84;99988.53;4452843;32;33632;-86
2021/01/17 04:27:02;;;;;;;53.97;50.57;;;;;;;6.74;35.86;99985.41;4440575;32;34608;-86
2021/01/17 04:29:30;;;;;;;53.67;50.07;;;;;;;5.93;37.55;99983.56;4455440;32;34873;-87
2021/01/17 04:31:58;;;;;;;53.63;50.03;;;;;;;6.43;36.57;99976.22;4455460;32;33779;-87
2021/01/17 04:34:27;;;;;;;53.33;49.83;;;;;;;6.04;37.33;99988.69;4443268;32;32455;-86
2021/01/17 04:36:54;;;;;;;54.60;51.03;;;;;;;5.83;37.96;99984.50;4455544;32;34097;-87
2021/01/17 04:39:25;;;;;;;53.95;50.35;;;;;;;5.48;38.82;99988.19;4455945;32;35121;-87
2021/01/17 04:41:57;;;;;;;54.20;50.63;;;;;;;5.42;38.69;99986.50;4455347;32;34179;-87
2021/01/17 04:44:34;;;;;;;54.17;50.58;;;;;;;5.49;39.00;99985.59;4468261;32;35031;-87
2021/01/17 04:47:04;;;;;;;54.60;50.53;;;;;;;5.39;39.17;100002.03;4468060;32;33544;-86
2021/01/17 04:49:41;;;;;;;55.13;51.07;;;;;;;5.93;38.16;99986.16;4455524;32;35202;-86
2021/01/17 04:52:13;;;;;;;54.60;50.80;;;;;;;5.20;39.18;99990.94;4455588;32;34084;-87
2021/01/17 04:54:41;;;;;;;53.43;49.93;;;;;;;5.25;39.20;99994.34;4442450;32;34635;-86
2021/01/17 04:57:22;;;;;;;52.80;49.30;;;;;;;5.84;38.17;99994.84;4455114;32;35057;-87
2021/01/17 05:00:05;;;;;;;53.72;50.17;;;;;;;5.75;38.34;99996.62;4442639;32;34659;-87
2021/01/17 05:02:34;;;;;;;53.93;50.33;;;;;;;5.97;37.88;99994.72;4467889;32;34491;-87
2021/01/17 05:05:02;;;;;;;53.97;50.27;;;;;;;5.26;39.73;99987.44;4455547;32;35213;-86
2021/01/17 05:07:37;;;;;;;53.17;49.70;;;;;;;5.74;38.52;99992.31;4468179;32;33504;-86
2021/01/17 05:10:11;;;;;;;54.10;50.30;;;;;;;5.52;39.05;99992.47;4455884;32;35333;-87
2021/01/17 05:12:52;;;;;;;54.07;50.43;;;;;;;5.99;37.93;99991.28;4455380;32;34364;-87
2021/01/17 05:15:22;;;;;;;54.43;50.23;;;;;;;6.15;37.73;99988.59;4456147;32;33735;-87
2021/01/17 05:17:54;;;;;;;53.90;50.42;;;;;;;5.76;38.48;99982.84;4459170;32;33516;-86
2021/01/17 05:20:22;;;;;;;53.33;49.73;;;;;;;6.00;38.15;99981.81;4457827;32;33948;-87
2021/01/17 05:22:50;;;;;;;53.10;49.37;;;;;;;5.95;38.27;99978.37;4455421;32;34071;-87
2021/01/17 05:25:19;;;;;;;53.93;50.33;;;;;;;6.00;37.98;99981.81;4442176;32;35048;-86
2021/01/17 05:27:49;;;;;;;54.90;51.00;;;;;;;5.92;38.13;99981.00;4442578;32;32292;-87
2021/01/17 05:30:17;;;;;;;54.93;51.07;;;;;;;6.16;37.72;99979.97;4455038;32;34528;-87
2021/01/17 05:32:52;;;;;;;53.33;49.83;;;;;;;5.92;38.44;99979.25;4442611;32;35305;-87
2021/01/17 05:35:23;;;;;;;52.80;49.23;;;;;;;6.41;37.17;99988.34;4455147;32;33589;-87
2021/01/17 05:37:52;;;;;;;52.47;49.07;;;;;;;6.51;36.87;99977.03;4442270;32;33876;-87
2021/01/17 05:40:21;;;;;;;53.43;50.03;;;;;;;5.93;37.77;99985.28;4455031;32;34236;-87
2021/01/17 05:42:49;;;;;;;53.13;49.63;;;;;;;6.27;37.07;99974.69;4455146;32;34648;-87
2021/01/17 05:45:19;;;;;;;54.83;51.23;;;;;;;5.92;38.15;99978.41;4455200;32;34135;-86
2021/01/17 05:47:50;;;;;;;53.57;50.00;;;;;;;6.00;37.74;99987.00;4429850;32;33590;-86
2021/01/17 05:50:18;;;;;;;53.53;50.07;;;;;;;6.57;36.78;99980.41;4455292;32;34295;-87
2021/01/17 05:52:53;;;;;;;53.40;49.80;;;;;;;6.75;36.10;99976.78;4455062;32;34076;-87
2021/01/17 05:55:30;;;;;;;53.70;50.17;;;;;;;6.07;37.47;99985.22;4455135;32;34935;-86
2021/01/17 05:58:27;;;;;;;52.93;49.27;;;;;;;6.24;37.30;99985.06;4467758;32;34999;-86
2021/01/17 06:01:15;;;;;;;54.00;50.40;;;;;;;6.35;36.89;99983.22;4454917;32;34298;-87
2021/01/17 06:03:51;;;;;;;53.87;50.23;;;;;;;6.67;36.28;99974.25;4442486;32;34622;-87
2021/01/17 06:06:28;;;;;;;54.00;50.30;;;;;;;6.16;36.83;99983.41;4455022;32;34319;-87
2021/01/17 06:09:00;;;;;;;54.03;50.50;;;;;;;6.40;36.60;99980.59;4442649;32;32018;-87
2021/01/17 06:11:29;;;;;;;53.15;49.75;;;;;;;6.27;37.19;99991.06;4442235;32;34550;-87
2021/01/17 06:14:02;;;;;;;53.60;50.07;;;;;;;6.45;36.62;99994.37;4467727;32;34566;-87
2021/01/17 06:16:37;;;;;;;53.53;49.93;;;;;;;6.34;36.92;99984.97;4442330;32;34002;-87
2021/01/17 06:19:32;;;;;;;53.50;49.90;;;;;;;6.61;36.47;99990.72;4442506;32;35124;-86
2021/01/17 06:22:02;;;;;;;54.50;50.77;;;;;;;6.55;36.60;99995.97;4454700;32;35234;-87
2021/01/17 06:24:41;;;;;;;53.60;50.00;;;;;;;5.92;37.73;100012.88;4454451;32;35727;-87
2021/01/17 06:27:08;;;;;;;53.03;49.50;;;;;;;5.92;37.89;100009.44;4455325;32;33282;-86
2021/01/17 06:29:41;;;;;;;54.43;50.53;;;;;;;6.33;36.99;100003.94;4442499;32;35065;-86
2021/01/17 06:32:30;;;;;;;55.53;51.47;;;;;;;6.77;36.19;100012.12;4456303;32;34039;-86
2021/01/17 06:34:59;;;;;;;53.77;50.30;;;;;;;6.73;36.09;100026.00;4469688;32;34736;-86
2021/01/17 06:37:28;;;;;;;52.70;49.20;;;;;;;6.30;37.05;100026.41;4469546;32;32586;-86
2021/01/17 06:39:57;;;;;;;55.07;50.97;;;;;;;6.81;36.18;100029.34;4455693;32;33285;-87
2021/01/17 06:42:25;;;;;;;54.37;50.67;;;;;;;6.97;35.94;100026.59;4455062;32;33938;-87
2021/01/17 06:44:53;;;;;;;55.03;51.17;;;;;;;6.95;35.98;100029.22;4454676;32;34028;-87
2021/01/17 06:47:22;;;;;;;53.40;49.93;;;;;;;6.38;37.12;100028.91;4467295;32;33706;-87
2021/01/17 06:49:52;;;;;;;54.20;50.20;;;;;;;6.35;37.33;100030.69;4441058;32;34584;-87
2021/01/17 06:52:20;;;;;;;53.07;49.50;;;;;;;6.57;37.05;100032.19;4441053;32;35054;-87
2021/01/17 06:54:49;;;;;;;54.27;50.63;;;;;;;6.65;36.81;100033.84;4467487;32;33541;-87
2021/01/17 06:57:19;;;;;;;54.10;50.43;;;;;;;6.84;36.43;100029.31;4441888;32;34978;-86
2021/01/17 06:59:48;;;;;;;53.70;50.03;;;;;;;5.93;37.97;100031.84;4454528;32;34723;-87
2021/01/17 07:02:37;;;;;;;53.70;50.10;;;;;;;6.57;36.74;100034.78;4442199;32;34530;-87
2021/01/17 07:05:32;;;;;;;53.63;50.03;;;;;;;5.97;37.68;100044.75;4441764;32;34309;-87
2021/01/17 07:08:28;;;;;;;52.70;49.27;;;;;;;6.33;37.08;100042.75;4454457;32;35198;-87
2021/01/17 07:11:32;;;;;;;54.50;50.70;;;;;;;6.28;37.31;100047.13;4441791;32;35084;-87
2021/01/17 07:14:06;;;;;;;54.10;50.33;;;;;;;6.40;36.99;100050.50;4440135;32;34663;-86
2021/01/17 07:16:34;;;;;;;54.87;51.07;;;;;;;6.66;36.64;100042.44;4454201;32;34457;-87
2021/01/17 07:19:07;;;;;;;54.17;50.47;;;;;;;6.58;36.60;100046.84;4454301;32;33975;-86
2021/01/17 07:21:37;;;;;;;54.37;50.60;;;;;;;6.61;36.54;100058.03;4441537;32;33408;-87
2021/01/17 07:24:08;;;;;;;54.80;50.95;;;;;;;6.83;36.29;100043.16;4466999;32;33652;-87
2021/01/17 07:26:53;;;;;;;54.33;50.70;;;;;;;6.20;37.12;100053.25;4441878;32;34368;-86
2021/01/17 07:29:26;;;;;;;54.63;50.93;;;;;;;6.74;36.28;100048.44;4454331;32;33701;-87
2021/01/17 07:31:56;;;;;;;54.80;51.20;;;;;;;6.75;36.32;100049.28;4454921;32;33899;-87
2021/01/17 07:34:30;;;;;;;52.80;49.20;;;;;;;5.88;37.59;100049.09;4454670;32;33758;-87
2021/01/17 07:37:00;;;;;;;53.97;50.27;;;;;;;6.12;37.64;100048.13;4441594;32;34512;-87
2021/01/17 07:39:32;;;;;;;54.78;50.97;;;;;;;6.11;37.30;100059.34;4441846;32;33051;-87
2021/01/17 07:42:00;;;;;;;;;;;;;;;5.55;38.39;100059.66;4467496;32;34307;-87
2021/01/17 07:44:31;;;;;;;55.30;51.47;;;;;;;6.43;37.08;100058.22;4466877;32;32894;-87
2021/01/17 07:47:04;;;;;;;53.87;50.38;;;;;;;6.27;37.56;100050.56;4466834;32;33634;-87
2021/01/17 07:49:33;;;;;;;54.70;50.83;;;;;;;6.38;37.40;100050.47;4466495;32;34148;-87
2021/01/17 07:52:04;;;;;;;54.23;50.60;;;;;;;6.22;37.61;100054.06;4453937;32;33207;-87
2021/01/17 07:54:34;;;;;;;53.63;50.22;;;;;;;6.52;37.17;100055.53;4453737;32;34158;-87
2021/01/17 07:57:08;;;;;;;53.70;50.20;;;;;;;6.54;37.28;100056.38;4466415;32;34766;-86
2021/01/17 07:59:36;;;;;;;53.80;50.23;;;;;;;6.53;37.22;100046.91;4453780;32;34089;-87
2021/01/17 08:02:03;;;;;;;53.90;50.33;;;;;;;6.43;37.26;100050.44;4454392;32;33731;-87
2021/01/17 08:04:31;;;;;;;55.00;51.40;;;;;;;6.28;37.58;100056.63;4468730;32;34193;-86
2021/01/17 08:06:59;;;;;;;54.27;50.57;;;;;;;6.00;38.13;100055.09;4455687;32;33940;-87
2021/01/17 08:09:47;;;;;;;54.97;51.10;;;;;;;6.48;37.50;100052.12;4468624;32;33472;-87
2021/01/17 08:12:32;;;;;;;54.57;50.97;;;;;;;6.63;37.18;100058.88;4443367;32;34295;-87
2021/01/17 08:15:29;;;;;;;55.23;51.37;;;;;;;6.55;37.33;100059.84;4455861;32;34588;-86
2021/01/17 08:17:57;;;;;;;54.10;50.50;;;;;;;6.11;38.05;100067.94;4455974;32;33859;-87
2021/01/17 08:20:28;;;;;;;53.07;49.63;;;;;;;6.41;37.90;100063.41;4455805;32;34221;-87
2021/01/17 08:23:03;;;;;;;53.78;50.08;;;;;;;6.21;38.24;100063.56;4442649;32;33991;-87
2021/01/17 08:25:55;;;;;;;53.60;49.80;;;;;;;6.57;37.41;100066.72;4442758;32;34247;-87
2021/01/17 08:28:30;;;;;;;54.20;50.50;;;;;;;6.36;37.74;100072.94;4455746;32;35405;-87
2021/01/17 08:30:58;;;;;;;55.07;51.37;;;;;;;6.44;37.79;100067.69;4455582;32;34059;-87
2021/01/17 08:33:26;;;;;;;53.47;50.03;;;;;;;7.05;36.67;100070.53;4455700;32;33774;-87
2021/01/17 08:35:54;;;;;;;55.13;51.17;;;;;;;6.17;37.97;100082.59;4442599;32;34150;-87
2021/01/17 08:38:22;;;;;;;55.80;52.00;;;;;;;6.74;36.91;100073.44;4468208;32;34862;-86
2021/01/17 08:40:51;;;;;;;54.53;50.93;;;;;;;6.44;37.68;100078.06;4442828;32;34052;-87
2021/01/17 08:43:30;;;;;;;53.93;50.23;;;;;;;6.37;37.64;100082.44;4455383;32;34272;-87
2021/01/17 08:45:58;;;;;;;54.67;50.90;;;;;;;6.08;37.91;100083.50;4455547;32;33652;-87
2021/01/17 08:48:27;;;;;;;53.53;49.83;;;;;;;5.26;39.42;100086.47;4442833;32;35626;-87
2021/01/17 08:50:57;;;;;;;54.57;50.87;;;;;;;5.35;39.58;100098.50;4455615;32;35123;-87
2021/01/17 08:53:33;;;;;;;55.17;51.37;;;;;;;6.15;38.17;100100.69;4468724;32;33383;-86
2021/01/17 08:56:19;;;;;;;54.40;50.60;;;;;;;6.60;37.19;100095.16;4455651;32;33419;-87
2021/01/17 08:58:48;;;;;;;53.53;49.93;;;;;;;6.78;36.68;100098.44;4442962;32;34962;-87
2021/01/17 09:01:17;;;;;;;54.93;51.13;;;;;;;6.45;37.11;100103.06;4455236;32;34916;-87
2021/01/17 09:03:45;;;;;;;56.53;52.37;;;;;;;5.78;38.17;100105.19;4442622;32;34785;-87
2021/01/17 09:06:13;;;;;;;54.27;50.67;;;;;;;6.64;36.61;100098.59;4455400;32;34426;-87
2021/01/17 09:08:53;;;;;;;54.27;50.63;;;;;;;6.63;36.57;100104.63;4455120;32;34352;-87
2021/01/17 09:11:24;;;;;;;53.63;50.00;;;;;;;6.22;37.11;100106.66;4468013;32;35139;-87
2021/01/17 09:14:07;;;;;;;54.90;50.97;;;;;;;6.52;36.66;100109.91;4468802;32;33362;-87
2021/01/17 09:16:41;;;;;;;54.60;50.77;;;;;;;6.77;35.94;100114.87;4469269;32;33349;-87
2021/01/17 09:19:09;;;;;;;55.10;51.23;;;;;;;6.65;36.11;100118.44;4455242;32;34800;-87
2021/01/17 09:21:38;;;;;;;54.77;50.80;;;;;;;7.47;34.67;100115.84;4442192;32;34579;-87
2021/01/17 09:24:13;;;;;;;54.97;51.27;;;;;;;6.89;35.73;100119.06;4441956;32;34892;-87
2021/01/17 09:26:47;;;;;;;54.33;50.63;;;;;;;7.11;35.50;100119.72;4467769;32;33727;-87
2021/01/17 09:29:25;;;;;;;54.13;50.43;;;;;;;7.57;34.78;100118.34;4454572;32;34701;-87
2021/01/17 09:31:55;;;;;;;54.47;50.97;;;;;;;7.37;34.43;100119.41;4454964;32;35080;-87
2021/01/17 09:34:26;;;;;;;54.77;51.00;;;;;;;7.22;35.26;100123.06;4454749;32;33927;-87
2021/01/17 09:36:54;;;;;;;54.23;50.57;;;;;;;7.55;34.45;100117.47;4442189;32;35217;-87
2021/01/17 09:39:42;;;;;;;54.13;50.23;;;;;;;8.06;33.76;100121.97;4467596;32;34576;-87
2021/01/17 09:42:12;;;;;;;54.60;50.70;;;;;;;6.95;35.51;100124.19;4442069;32;34268;-87
2021/01/17 09:44:41;;;;;;;54.57;50.80;;;;;;;7.35;34.72;100113.38;4454817;32;34455;-87
2021/01/17 09:47:17;;;;;;;54.40;50.80;;;;;;;7.56;34.68;100116.59;4442360;32;34516;-87
2021/01/17 09:49:46;;;;;;;55.15;51.25;;;;;;;7.85;33.79;100105.84;4442142;32;35426;-87
2021/01/17 09:52:21;;;;;;;55.05;51.10;;;;;;;7.74;34.37;100112.91;4455181;32;34573;-87
2021/01/17 09:54:50;;;;;;;55.07;51.10;;;;;;;7.71;34.53;100110.34;4443662;32;33789;-87
2021/01/17 09:57:23;;;;;;;55.53;51.60;;;;;;;8.03;33.92;100115.97;4443860;32;34267;-87
2021/01/17 09:59:53;;;;;;;54.30;50.70;;;;;;;7.77;33.67;100111.13;4442694;32;34492;-87
2021/01/17 10:02:23;;;;;;;55.20;51.37;;;;;;;7.81;34.05;100122.34;4455269;32;33837;-87
2021/01/17 10:04:51;;;;;;;53.83;50.30;;;;;;;8.26;33.05;100117.34;4467838;32;34217;-87
2021/01/17 10:07:22;;;;;;;54.63;50.87;;;;;;;7.58;33.75;100123.50;4455297;32;32984;-88
2021/01/17 10:09:55;;;;;;;54.28;50.67;;;;;;;7.58;33.94;100117.44;4455495;32;34827;-87
2021/01/17 10:12:26;;;;;;;54.72;51.13;;;;;;;8.50;32.51;100120.50;4441957;32;34249;-87
2021/01/17 10:14:55;;;;;;;54.00;50.38;;;;;;;8.23;32.56;100113.94;4455089;32;34986;-87
2021/01/17 10:17:22;;;;;;;54.40;50.77;;;;;;;7.73;33.84;100113.81;4454455;32;34563;-87
2021/01/17 10:19:49;;;;;;;54.58;50.90;;;;;;;7.92;33.11;100119.59;4441690;32;35345;-87
2021/01/17 10:22:18;;;;;;;55.33;51.22;;;;;;;8.41;32.42;100121.44;4454729;32;34042;-87
2021/01/17 10:24:46;;;;;;;53.85;50.33;;;;;;;7.85;33.43;100111.03;4466518;32;34434;-87
2021/01/17 10:27:16;;;;;;;55.03;51.08;;;;;;;8.45;32.26;100117.94;4466546;32;34269;-87
2021/01/17 10:29:44;;;;;;;54.20;50.50;;;;;;;8.60;31.87;100119.47;4441556;32;34551;-87
2021/01/17 10:32:13;;;;;;;55.05;51.35;;;;;;;8.62;31.72;100122.88;4442232;32;34047;-87
2021/01/17 10:34:41;;;;;;;55.67;51.78;;;;;;;8.40;32.02;100117.12;4454263;32;34185;-87
2021/01/17 10:37:11;;;;;;;54.80;51.00;;;;;;;8.46;31.96;100122.25;4454529;32;34457;-88
2021/01/17 10:39:56;;;;;;;55.25;51.45;;;;;;;8.63;31.67;100128.94;4456527;32;33891;-87
2021/01/17 10:42:32;;;;;;;55.28;51.58;;;;;;;9.03;30.66;100131.69;4441764;32;35240;-87
2021/01/17 10:45:02;;;;;;;55.53;51.63;;;;;;;9.00;30.62;100134.34;4467601;32;32992;-87
2021/01/17 10:47:33;;;;;;;56.95;52.95;;;;;;;9.12;30.11;100130.66;4467387;32;33938;-87
2021/01/17 10:50:07;;;;;;;55.50;51.70;;;;;;;8.88;30.88;100120.69;4454291;32;34806;-87
2021/01/17 10:52:40;;;;;;;55.10;51.37;;;;;;;8.91;30.47;100120.62;4454304;32;33970;-87
2021/01/17 10:55:12;;;;;;;54.40;50.80;;;;;;;9.24;30.11;100123.50;4454726;32;34441;-88
2021/01/17 10:57:40;;;;;;;55.28;51.37;;;;;;;9.32;29.84;100126.81;4441423;32;34006;-88
2021/01/17 11:00:09;;;;;;;55.10;51.30;;;;;;;9.30;30.30;100124.22;4454712;32;33608;-87
2021/01/17 11:02:36;;;;;;;56.17;52.30;;;;;;;8.99;30.55;100130.03;4454278;32;34319;-87
2021/01/17 11:05:06;;;;;;;54.88;51.08;;;;;;;9.74;29.67;100132.03;4467345;32;33885;-87
2021/01/17 11:07:34;;;;;;;55.90;52.00;;;;;;;9.77;29.78;100131.09;4454665;32;33354;-87
2021/01/17 11:10:14;;;;;;;56.20;52.25;;;;;;;9.50;30.10;100130.78;4467146;32;33757;-87
2021/01/17 11:12:42;;;;;;;55.10;51.37;;;;;;;9.55;30.29;100134.16;4454826;32;32781;-87
2021/01/17 11:15:14;;;;;;;54.90;51.20;;;;;;;9.82;29.61;100134.47;4454380;32;33154;-87
2021/01/17 11:17:58;;;;;;;54.20;50.50;;;;;;;10.09;29.08;100126.94;4455949;32;34408;-87
2021/01/17 11:20:28;;;;;;;56.65;52.85;;;;;;;10.16;29.19;100128.53;4453781;32;34911;-87
2021/01/17 11:23:03;;;;;;;56.13;52.33;;;;;;;10.43;28.50;100128.78;4453845;32;34207;-87
2021/01/17 11:25:33;;;;;;;55.20;51.40;;;;;;;9.75;28.93;100138.09;4453537;32;34659;-87
2021/01/17 11:28:03;;;;;;;55.05;51.42;;;;;;;10.33;28.79;100128.97;4441380;32;34612;-87
2021/01/17 11:30:33;;;;;;;56.20;52.17;;;;;;;11.34;27.03;100129.03;4453955;32;33690;-87
2021/01/17 11:33:08;;;;;;;56.42;52.83;;;;;;;11.58;26.96;100121.41;4453818;32;32598;-87
2021/01/17 11:35:37;;;;;;;55.90;52.20;;;;;;;10.78;28.51;100132.25;4453388;32;34155;-88
2021/01/17 11:38:07;;;;;;;55.67;51.97;;;;;;;10.59;28.83;100124.06;4453549;32;34689;-87